Time;durP1;ratioP1;P1;durP2;ratioP2;P2;SDS_P1;SDS_P2;PMS_P1;PMS_P2;Temp;Humidity;BMP_temperature;BMP_pressure;BME280_temperature;BME280_humidity;BME280_pressure;Samples;Min_cycle;Max_cycle;Signal;HPM_P1;HPM_P2
2022/12/19 00:01:43;;;;;;;38.95;15.48;;;2.10;82.40;;;;;;9185127;19;19919;-84
2022/12/19 00:04:52;;;;;;;40.22;17.83;;;2.10;82.40;;;;;;9182914;19;20798;-85
2022/12/19 00:08:07;;;;;;;42.67;17.73;;;2.10;82.40;;;;;;9184817;19;20018;-86
2022/12/19 00:11:23;;;;;;;38.20;17.02;;;2.10;82.40;;;;;;9183878;19;20078;-86
2022/12/19 00:14:35;;;;;;;37.22;16.55;;;2.10;82.60;;;;;;9183976;19;20015;-85
2022/12/19 00:17:47;;;;;;;42.88;17.73;;;2.10;82.70;;;;;;9183879;19;20074;-87
2022/12/19 00:21:29;;;;;;;42.40;16.88;;;2.10;82.50;;;;;;9181764;19;20007;-85
2022/12/19 00:24:51;;;;;;;40.17;17.60;;;2.10;82.60;;;;;;9181263;19;20018;-84
2022/12/19 00:28:08;;;;;;;43.75;16.88;;;2.10;82.60;;;;;;9185190;19;20013;-84
2022/12/19 00:31:28;;;;;;;42.03;16.95;;;2.10;82.60;;;;;;9182609;19;20010;-84
2022/12/19 00:34:42;;;;;;;38.03;16.27;;;2.10;82.60;;;;;;9183314;19;20349;-85
2022/12/19 00:37:50;;;;;;;39.10;15.82;;;2.10;82.60;;;;;;9183351;19;20078;-84
2022/12/19 00:41:07;;;;;;;39.10;16.52;;;2.10;82.70;;;;;;9184416;19;20026;-84
2022/12/19 00:44:19;;;;;;;37.15;15.73;;;2.10;82.80;;;;;;9184335;19;20011;-85
2022/12/19 00:47:25;;;;;;;37.17;15.73;;;2.10;82.70;;;;;;9183713;19;20015;-84
2022/12/19 00:50:35;;;;;;;36.90;16.92;;;2.10;82.70;;;;;;9183743;19;20017;-84
2022/12/19 00:53:52;;;;;;;35.65;15.98;;;2.20;82.80;;;;;;9179720;19;20025;-84
2022/12/19 00:57:00;;;;;;;40.63;17.98;;;2.20;82.80;;;;;;9181491;19;20011;-84
2022/12/19 01:00:14;;;;;;;42.50;17.50;;;2.20;82.80;;;;;;9183668;19;20042;-85
2022/12/19 01:03:24;;;;;;;42.65;17.77;;;2.20;82.80;;;;;;9184097;19;20066;-84
2022/12/19 01:06:41;;;;;;;44.30;16.63;;;2.20;82.90;;;;;;9178291;19;20031;-84
2022/12/19 01:09:52;;;;;;;39.40;16.45;;;2.20;82.80;;;;;;9183174;19;20055;-85
2022/12/19 01:13:10;;;;;;;39.17;16.63;;;2.30;82.90;;;;;;9181156;19;20033;-86
2022/12/19 01:16:19;;;;;;;41.45;16.40;;;2.30;83.00;;;;;;9183329;19;20018;-84
2022/12/19 01:19:40;;;;;;;38.20;15.25;;;2.30;83.10;;;;;;9182168;19;20023;-85
2022/12/19 01:22:52;;;;;;;40.05;16.90;;;2.30;83.00;;;;;;9182192;19;20471;-85
2022/12/19 01:26:04;;;;;;;47.42;17.85;;;2.30;83.10;;;;;;9180257;19;20048;-85
2022/12/19 01:29:08;;;;;;;44.33;18.35;;;2.30;83.00;;;;;;9180574;19;20040;-85
2022/12/19 01:32:14;;;;;;;44.30;16.70;;;2.40;83.30;;;;;;9180862;19;20025;-85
2022/12/19 01:35:22;;;;;;;42.80;17.23;;;2.30;83.10;;;;;;9182637;19;20081;-84
2022/12/19 01:38:40;;;;;;;41.22;17.25;;;2.40;83.10;;;;;;9181291;19;20014;-84
2022/12/19 01:41:47;;;;;;;36.67;16.23;;;2.50;83.30;;;;;;9181428;19;20353;-85
2022/12/19 01:45:30;;;;;;;38.92;16.27;;;2.40;83.20;;;;;;9180539;19;20066;-85
2022/12/19 01:49:04;;;;;;;35.10;16.13;;;2.50;83.20;;;;;;9180897;19;20508;-85
2022/12/19 01:52:19;;;;;;;43.28;17.10;;;2.50;83.30;;;;;;9178799;19;20672;-87
2022/12/19 01:55:40;;;;;;;38.50;17.13;;;2.50;83.30;;;;;;9180704;19;20018;-87
2022/12/19 01:58:47;;;;;;;44.03;17.20;;;2.50;83.30;;;;;;9181337;19;20468;-86
2022/12/19 02:02:02;;;;;;;39.75;16.10;;;2.60;83.40;;;;;;9180361;19;20007;-86
2022/12/19 02:05:28;;;;;;;40.50;16.50;;;2.60;83.40;;;;;;9177163;19;20058;-87
2022/12/19 02:08:38;;;;;;;36.42;14.52;;;2.60;83.40;;;;;;9179997;19;20040;-87
2022/12/19 02:11:48;;;;;;;40.25;16.83;;;2.60;83.40;;;;;;9180601;19;20015;-87
2022/12/19 02:14:54;;;;;;;41.85;16.17;;;2.60;83.40;;;;;;9181678;19;20014;-87
2022/12/19 02:18:19;;;;;;;43.20;16.60;;;2.70;83.50;;;;;;9179391;19;20010;-87
2022/12/19 02:21:36;;;;;;;37.03;15.60;;;2.70;83.50;;;;;;9177358;19;20394;-87
2022/12/19 02:25:04;;;;;;;36.08;15.63;;;2.60;83.50;;;;;;9178338;19;20468;-87
2022/12/19 02:28:39;;;;;;;45.47;17.50;;;2.70;83.50;;;;;;9179036;19;20023;-85
2022/12/19 02:31:56;;;;;;;44.45;16.60;;;2.80;83.60;;;;;;9178995;19;20468;-85
2022/12/19 02:35:20;;;;;;;39.35;16.25;;;2.80;84.20;;;;;;9178313;19;20451;-85
2022/12/19 02:38:52;;;;;;;43.78;16.83;;;2.80;83.70;;;;;;9185865;19;20018;-85
2022/12/19 02:42:07;;;;;;;39.45;17.23;;;2.80;83.60;;;;;;9188185;19;20011;-85
2022/12/19 02:45:17;;;;;;;41.30;17.30;;;2.90;84.00;;;;;;9188482;19;20015;-86
2022/12/19 02:48:51;;;;;;;40.28;16.27;;;2.90;83.90;;;;;;9186766;19;20019;-85
2022/12/19 02:52:13;;;;;;;45.25;17.02;;;2.90;83.90;;;;;;9186401;19;20025;-86
2022/12/19 02:55:25;;;;;;;43.22;16.92;;;2.90;83.80;;;;;;9186327;19;20025;-86
2022/12/19 02:58:52;;;;;;;50.25;16.40;;;2.90;83.80;;;;;;9186748;19;20356;-86
2022/12/19 03:02:04;;;;;;;39.53;16.02;;;3.10;84.00;;;;;;9186109;19;20038;-86
2022/12/19 03:05:52;;;;;;;38.05;15.52;;;3.00;83.90;;;;;;9181864;19;21392;-87
2022/12/19 03:09:41;;;;;;;42.38;16.95;;;3.00;84.00;;;;;;9185638;19;20352;-88
2022/12/19 03:12:59;;;;;;;45.85;17.95;;;3.10;84.00;;;;;;9184264;19;20051;-88
2022/12/19 03:16:38;;;;;;;42.70;17.58;;;3.10;84.10;;;;;;9186807;19;20026;-87
2022/12/19 03:20:11;;;;;;;41.75;15.43;;;3.10;84.10;;;;;;9184909;19;20022;-88
2022/12/19 03:24:04;;;;;;;42.10;19.30;;;3.10;84.20;;;;;;9184792;19;20026;-87
2022/12/19 03:28:25;;;;;;;44.30;17.40;;;3.20;84.20;;;;;;9186135;19;20382;-88
2022/12/19 03:32:13;;;;;;;42.95;16.63;;;3.20;84.30;;;;;;9186647;19;20011;-88
2022/12/19 03:35:56;;;;;;;50.13;18.35;;;3.30;84.30;;;;;;9187937;19;20867;-88
2022/12/19 03:40:08;;;;;;;42.78;16.85;;;3.30;84.50;;;;;;9184291;19;20027;-88
2022/12/19 03:52:47;;;;;;;33.45;15.63;;;3.40;84.40;;;;;;9179588;19;20010;-88
2022/12/19 03:56:40;;;;;;;45.90;17.42;;;3.50;84.50;;;;;;9182526;19;20018;-89
2022/12/19 04:14:02;;;;;;;39.90;16.60;;;3.60;84.60;;;;;;9177583;19;20019;-90
2022/12/19 04:28:17;;;;;;;41.03;15.98;;;3.80;84.70;;;;;;9180911;19;20038;-89
2022/12/19 04:36:29;;;;;;;38.03;16.52;;;3.90;84.80;;;;;;9180943;19;21070;-91
2022/12/19 04:44:57;;;;;;;37.35;14.93;;;4.00;85.00;;;;;;9180738;19;20011;-90
2022/12/19 04:48:42;;;;;;;41.35;16.25;;;4.00;85.00;;;;;;9178026;19;20017;-89
2022/12/19 04:52:14;;;;;;;35.97;15.85;;;4.10;85.10;;;;;;9179582;19;20032;-88
2022/12/19 04:55:44;;;;;;;;;;;;;;;;;;;;;
2022/12/19 05:26:57;;;;;;;44.47;16.50;;;4.30;85.20;;;;;;9175609;19;20011;-90
2022/12/19 05:34:52;;;;;;;38.13;16.48;;;4.40;85.30;;;;;;9172061;19;20010;-90
2022/12/19 05:56:47;;;;;;;36.78;16.67;;;4.60;85.50;;;;;;9174426;19;20015;-90
2022/12/19 06:17:08;;;;;;;36.47;14.57;;;4.80;85.80;;;;;;9187764;19;20021;-90
2022/12/19 06:20:40;;;;;;;33.30;13.98;;;4.80;85.90;;;;;;9186451;19;20007;-90
2022/12/19 06:28:49;;;;;;;34.25;14.82;;;4.90;86.00;;;;;;9185130;19;20018;-88
2022/12/19 06:33:57;;;;;;;30.67;14.35;;;4.90;86.00;;;;;;9185285;19;20011;-89
2022/12/19 06:58:35;;;;;;;31.77;14.80;;;5.20;86.10;;;;;;9184528;19;20030;-88
2022/12/19 07:02:56;;;;;;;33.53;15.93;;;5.30;86.20;;;;;;9181250;19;20007;-89
2022/12/19 07:06:27;;;;;;;31.67;15.73;;;5.30;86.20;;;;;;9182134;19;20018;-89
2022/12/19 07:09:59;;;;;;;32.47;14.48;;;5.40;86.30;;;;;;9184123;19;20025;-89
2022/12/19 07:13:06;;;;;;;29.17;13.63;;;5.40;86.30;;;;;;9183422;19;20011;-89
2022/12/19 07:16:11;;;;;;;34.95;15.63;;;5.40;86.40;;;;;;9181545;19;20007;-89
2022/12/19 07:24:53;;;;;;;30.63;13.57;;;5.50;86.60;;;;;;9180479;19;20074;-89
2022/12/19 07:28:39;;;;;;;29.67;13.85;;;5.60;86.60;;;;;;9182207;19;20022;-87
2022/12/19 07:33:24;;;;;;;33.30;15.20;;;5.70;86.50;;;;;;9180007;19;20475;-89
2022/12/19 07:37:07;;;;;;;32.25;15.85;;;5.70;86.60;;;;;;9184773;19;20114;-89
2022/12/19 07:46:01;;;;;;;29.25;14.27;;;5.70;86.60;;;;;;9182581;19;20020;-90
2022/12/19 07:58:09;;;;;;;30.95;14.02;;;5.90;86.70;;;;;;9183171;19;20027;-90
2022/12/19 08:01:34;;;;;;;32.22;13.02;;;5.90;86.80;;;;;;9183117;19;20014;-90
2022/12/19 08:04:46;;;;;;;30.38;14.40;;;6.00;87.00;;;;;;9181400;19;20010;-90
2022/12/19 08:08:02;;;;;;;30.17;14.95;;;6.00;86.90;;;;;;9181976;19;20460;-90
2022/12/19 08:11:28;;;;;;;30.17;14.18;;;6.00;87.00;;;;;;9186234;19;20082;-89
2022/12/19 08:14:43;;;;;;;31.77;15.23;;;6.10;87.00;;;;;;9180410;19;20352;-89
2022/12/19 08:18:07;;;;;;;31.17;14.80;;;6.10;87.10;;;;;;9180764;19;20018;-90
2022/12/19 08:21:29;;;;;;;30.40;14.07;;;6.20;87.20;;;;;;9179806;19;20150;-89
2022/12/19 08:25:14;;;;;;;35.53;15.15;;;6.20;87.20;;;;;;9179362;19;20010;-90
2022/12/19 08:28:59;;;;;;;36.42;14.63;;;6.10;87.20;;;;;;9180273;19;20056;-90
2022/12/19 08:32:33;;;;;;;34.90;14.60;;;6.30;87.30;;;;;;9181964;19;20029;-90
2022/12/19 08:36:06;;;;;;;29.23;15.05;;;6.40;87.30;;;;;;9177550;19;20011;-91
2022/12/19 08:39:31;;;;;;;36.20;14.10;;;6.30;87.30;;;;;;9183545;19;20014;-90
2022/12/19 08:42:49;;;;;;;29.17;14.73;;;6.40;87.30;;;;;;9180588;19;20074;-89
2022/12/19 08:46:19;;;;;;;35.38;15.65;;;6.40;87.40;;;;;;9179841;19;20078;-92
2022/12/19 08:49:53;;;;;;;36.53;15.50;;;6.50;87.30;;;;;;9178974;19;20010;-90
2022/12/19 08:58:22;;;;;;;34.78;13.40;;;6.50;87.50;;;;;;9180567;19;20491;-90
2022/12/19 10:04:00;;;;;;;26.30;11.82;;;7.20;87.90;;;;;;9182832;19;20090;-65
2022/12/19 10:07:04;;;;;;;27.77;12.70;;;7.20;87.80;;;;;;9170303;19;20511;-67
2022/12/19 10:10:33;;;;;;;26.60;11.77;;;7.30;87.90;;;;;;9175543;19;20346;-67
2022/12/19 10:14:13;;;;;;;24.25;10.77;;;7.30;87.90;;;;;;9168090;19;20015;-66
2022/12/19 10:17:25;;;;;;;28.77;11.70;;;7.30;88.00;;;;;;9173346;19;20042;-66
2022/12/19 10:20:36;;;;;;;23.95;10.38;;;7.30;88.00;;;;;;9171756;19;20014;-64
2022/12/19 10:24:00;;;;;;;25.33;12.23;;;7.40;88.00;;;;;;9170052;19;20353;-67
2022/12/19 10:27:14;;;;;;;30.02;11.10;;;7.40;88.10;;;;;;9172988;19;20018;-64
2022/12/19 10:30:21;;;;;;;24.27;11.23;;;7.40;88.20;;;;;;9170603;19;20019;-67
2022/12/19 10:33:31;;;;;;;24.45;12.30;;;7.40;88.10;;;;;;9171615;19;20022;-65
2022/12/19 10:36:45;;;;;;;25.73;11.68;;;7.40;88.10;;;;;;9168736;19;20068;-66
2022/12/19 10:40:16;;;;;;;27.17;11.30;;;7.40;88.20;;;;;;9170157;19;20019;-66
2022/12/19 10:43:43;;;;;;;19.45;10.40;;;7.50;88.30;;;;;;9167454;19;20550;-66
2022/12/19 10:46:50;;;;;;;22.95;10.60;;;7.50;88.30;;;;;;9167969;19;20019;-66
2022/12/19 10:49:54;;;;;;;23.05;10.10;;;7.50;88.30;;;;;;9168911;19;20562;-66
2022/12/19 10:53:10;;;;;;;25.88;9.85;;;7.60;88.30;;;;;;9174168;19;20364;-66
2022/12/19 10:56:21;;;;;;;20.95;10.13;;;7.60;88.40;;;;;;9169601;19;20015;-66
2022/12/19 10:59:26;;;;;;;19.05;10.25;;;7.60;88.30;;;;;;9174703;19;20031;-66
2022/12/19 11:02:41;;;;;;;19.17;9.85;;;7.70;88.40;;;;;;9178711;19;20018;-67
2022/12/19 11:05:51;;;;;;;18.38;9.98;;;7.70;88.50;;;;;;9177050;19;20022;-67
2022/12/19 11:09:18;;;;;;;22.75;10.77;;;7.70;88.40;;;;;;9180962;19;20025;-68
2022/12/19 11:12:26;;;;;;;19.65;10.63;;;7.70;88.50;;;;;;9174956;19;20014;-67
2022/12/19 11:15:51;;;;;;;21.60;9.82;;;7.70;88.40;;;;;;9174149;19;20017;-68
2022/12/19 11:19:22;;;;;;;22.42;10.82;;;7.80;88.50;;;;;;9176305;19;20022;-67
2022/12/19 11:22:53;;;;;;;20.33;10.00;;;7.80;88.60;;;;;;9169703;19;20018;-68
2022/12/19 11:26:33;;;;;;;18.17;9.60;;;7.80;88.50;;;;;;9167972;19;20114;-68
2022/12/19 11:29:58;;;;;;;22.67;9.35;;;7.80;88.60;;;;;;9164793;19;20032;-68
2022/12/19 11:33:22;;;;;;;17.60;9.35;;;7.90;88.60;;;;;;9166510;19;20130;-67
2022/12/19 11:36:29;;;;;;;;;;;7.90;88.60;;;;;;9172242;19;20018;-68
2022/12/19 11:39:37;;;;;;;20.02;9.18;;;7.90;88.60;;;;;;9173350;19;19927;-67
2022/12/19 11:42:51;;;;;;;18.42;9.27;;;7.90;88.80;;;;;;9173009;19;20464;-68
2022/12/19 11:46:32;;;;;;;20.35;9.38;;;8.00;88.60;;;;;;9176006;19;20078;-68
2022/12/19 11:49:41;;;;;;;20.95;10.05;;;8.00;88.60;;;;;;9173530;19;20034;-68
2022/12/19 11:52:53;;;;;;;18.50;9.27;;;8.00;88.70;;;;;;9177877;19;20098;-68
2022/12/19 11:56:11;;;;;;;18.23;9.63;;;8.00;88.80;;;;;;9181001;19;20498;-67
2022/12/19 11:59:25;;;;;;;20.02;9.82;;;8.10;88.80;;;;;;9176003;19;20016;-67
2022/12/19 12:02:55;;;;;;;15.23;8.50;;;8.10;88.80;;;;;;9174252;19;20017;-68
2022/12/19 12:05:59;;;;;;;16.88;8.77;;;8.10;88.90;;;;;;9172056;19;20018;-67
2022/12/19 12:09:21;;;;;;;19.45;9.00;;;8.20;88.90;;;;;;9173432;19;20044;-67
2022/12/19 12:13:01;;;;;;;19.08;9.10;;;8.20;89.00;;;;;;9173097;19;20021;-67
2022/12/19 12:16:34;;;;;;;18.88;8.65;;;8.20;88.90;;;;;;9172451;19;20482;-67
2022/12/19 12:20:17;;;;;;;20.60;9.37;;;8.30;89.50;;;;;;9165425;19;20018;-66
2022/12/19 12:23:56;;;;;;;16.95;8.55;;;8.30;88.90;;;;;;9168803;19;20139;-68
2022/12/19 12:27:34;;;;;;;15.93;8.45;;;8.30;88.90;;;;;;9170892;19;20374;-67
2022/12/19 12:31:09;;;;;;;16.02;8.48;;;8.40;88.90;;;;;;9170541;19;20019;-67
2022/12/19 12:34:56;;;;;;;18.70;8.50;;;8.40;88.90;;;;;;9167746;19;20010;-67
2022/12/19 12:38:38;;;;;;;17.15;8.73;;;8.40;88.90;;;;;;9171033;19;20022;-67
2022/12/19 12:42:06;;;;;;;16.33;8.75;;;8.40;88.90;;;;;;9168860;19;20041;-67
2022/12/19 12:45:23;;;;;;;16.50;8.48;;;8.40;88.90;;;;;;9171983;19;20010;-67
2022/12/19 12:48:31;;;;;;;16.52;8.75;;;8.50;89.60;;;;;;9170012;19;20051;-67
2022/12/19 12:51:38;;;;;;;15.85;7.97;;;8.50;89.00;;;;;;9166272;19;20024;-67
2022/12/19 12:54:44;;;;;;;17.35;9.18;;;8.50;89.00;;;;;;9157975;19;20590;-67
2022/12/19 12:57:48;;;;;;;16.58;8.10;;;8.50;89.00;;;;;;9167568;19;20010;-67
2022/12/19 13:01:10;;;;;;;18.33;9.32;;;8.50;89.10;;;;;;9162242;19;20022;-67
2022/12/19 13:04:26;;;;;;;15.30;7.65;;;8.50;89.70;;;;;;9171897;19;20026;-67
2022/12/19 13:07:44;;;;;;;18.20;8.57;;;8.50;89.00;;;;;;9167687;19;20018;-66
2022/12/19 13:10:56;;;;;;;18.42;8.55;;;8.50;89.10;;;;;;9167670;19;20022;-66
2022/12/19 13:14:00;;;;;;;19.15;8.77;;;8.60;89.10;;;;;;9167596;19;20014;-67
2022/12/19 13:17:04;;;;;;;;;;;8.60;89.10;;;;;;9170069;19;20022;-67
2022/12/19 13:20:41;;;;;;;13.93;7.82;;;8.60;89.10;;;;;;9167425;19;19911;-67
2022/12/19 13:23:50;;;;;;;15.27;8.10;;;8.60;89.00;;;;;;9169477;19;20015;-67
2022/12/19 13:26:54;;;;;;;19.77;8.38;;;8.60;89.00;;;;;;9169752;19;20011;-67
2022/12/19 13:30:06;;;;;;;;;;;8.60;89.00;;;;;;9174085;19;20010;-67
2022/12/19 13:33:11;;;;;;;16.10;7.72;;;8.60;89.10;;;;;;9165362;19;19926;-67
2022/12/19 13:36:45;;;;;;;17.88;8.60;;;8.60;88.90;;;;;;9166359;19;20022;-67
2022/12/19 13:40:26;;;;;;;9.67;5.27;;;8.70;89.10;;;;;;9166864;19;20870;-67
2022/12/19 13:43:46;;;;;;;14.32;7.57;;;8.70;89.60;;;;;;9167394;19;20022;-66
2022/12/19 13:46:51;;;;;;;14.65;7.75;;;8.70;89.00;;;;;;9175136;19;20035;-67
2022/12/19 13:49:55;;;;;;;12.77;6.72;;;8.70;89.00;;;;;;9166477;19;20063;-67
2022/12/19 13:52:59;;;;;;;13.38;7.25;;;8.70;89.00;;;;;;9168574;19;20021;-67
2022/12/19 13:56:05;;;;;;;;;;;8.70;89.00;;;;;;9165757;19;20444;-66
2022/12/19 13:59:11;;;;;;;15.95;7.60;;;8.70;89.00;;;;;;9168173;19;20356;-64
2022/12/19 14:02:20;;;;;;;15.82;6.88;;;8.70;88.90;;;;;;9169523;19;20511;-67
2022/12/19 14:05:27;;;;;;;19.70;8.00;;;8.80;89.00;;;;;;9172827;19;20022;-66
2022/12/19 14:08:54;;;;;;;19.33;9.43;;;8.80;89.00;;;;;;9167539;19;20037;-66
2022/12/19 14:16:00;;;;;;;17.00;8.23;;;8.80;89.10;;;;;;9175633;19;20440;-65
2022/12/19 14:19:04;;;;;;;15.80;8.55;;;8.80;89.00;;;;;;9174779;19;20074;-66
2022/12/19 14:22:14;;;;;;;15.57;8.57;;;8.80;89.00;;;;;;9175694;19;20022;-65
2022/12/19 14:25:37;;;;;;;16.33;8.32;;;8.80;89.00;;;;;;9174946;19;20035;-67
2022/12/19 14:29:07;;;;;;;17.42;8.20;;;8.80;89.00;;;;;;9175181;19;20025;-65
2022/12/19 14:32:11;;;;;;;17.98;8.13;;;8.80;88.90;;;;;;9177966;19;20018;-64
2022/12/19 14:35:38;;;;;;;21.35;8.73;;;8.90;89.00;;;;;;9183690;19;20018;-66
2022/12/19 14:39:02;;;;;;;15.15;7.47;;;8.80;88.90;;;;;;9184440;19;20022;-66
2022/12/19 14:46:28;;;;;;;16.27;6.95;;;8.90;88.90;;;;;;9181788;19;20433;-66
2022/12/19 14:49:53;;;;;;;15.23;8.00;;;8.90;89.00;;;;;;9180313;19;20036;-66
2022/12/19 14:53:19;;;;;;;16.70;7.15;;;8.90;89.50;;;;;;9182001;19;20647;-66
2022/12/19 14:56:45;;;;;;;16.60;7.97;;;8.90;89.00;;;;;;9181797;19;20026;-66
2022/12/19 15:00:25;;;;;;;13.30;7.60;;;8.90;88.80;;;;;;9178839;19;20074;-67
2022/12/19 15:03:54;;;;;;;17.13;8.30;;;8.90;88.90;;;;;;9180664;19;20046;-66
2022/12/19 15:07:21;;;;;;;17.77;7.93;;;8.90;88.80;;;;;;9181557;19;20015;-67
2022/12/19 15:10:27;;;;;;;14.30;7.10;;;8.90;88.80;;;;;;9181294;19;20375;-66
2022/12/19 15:13:56;;;;;;;12.77;7.45;;;8.90;88.80;;;;;;9180519;19;20372;-66
2022/12/19 15:17:23;;;;;;;18.92;8.00;;;8.90;88.80;;;;;;9181344;19;20033;-67
2022/12/19 15:20:28;;;;;;;17.20;7.85;;;8.90;88.80;;;;;;9181577;19;20026;-65
2022/12/19 15:23:32;;;;;;;16.42;7.65;;;8.90;88.80;;;;;;9180538;19;20474;-65
2022/12/19 15:26:48;;;;;;;14.52;7.60;;;8.90;88.70;;;;;;9179239;19;20023;-66
2022/12/19 15:29:52;;;;;;;19.08;7.18;;;8.90;88.70;;;;;;9179820;19;20021;-66
2022/12/19 15:32:56;;;;;;;17.35;7.20;;;8.90;88.70;;;;;;9178960;19;20006;-66
2022/12/19 15:36:02;;;;;;;13.52;7.30;;;8.90;88.70;;;;;;9181843;19;20019;-66
2022/12/19 15:39:05;;;;;;;14.75;6.70;;;8.90;88.70;;;;;;9180813;19;20029;-66
2022/12/19 15:42:19;;;;;;;20.17;7.47;;;8.90;88.60;;;;;;9180836;19;20014;-66
2022/12/19 15:45:23;;;;;;;15.20;7.47;;;8.90;88.60;;;;;;9179857;19;20472;-66
2022/12/19 15:48:27;;;;;;;15.40;7.93;;;8.90;88.60;;;;;;9180311;19;20359;-66
2022/12/19 15:51:33;;;;;;;13.60;6.88;;;8.90;88.50;;;;;;9180871;19;20011;-66
2022/12/19 15:54:36;;;;;;;18.13;7.55;;;8.90;88.50;;;;;;9180231;19;20448;-66
2022/12/19 15:57:55;;;;;;;16.60;7.22;;;8.90;88.50;;;;;;9183090;19;20071;-66
2022/12/19 16:01:03;;;;;;;17.48;6.78;;;8.90;88.50;;;;;;9177873;19;20017;-66
2022/12/19 16:04:13;;;;;;;14.55;7.03;;;8.90;88.50;;;;;;9182373;19;20014;-66
2022/12/19 16:07:21;;;;;;;18.95;7.35;;;8.90;88.50;;;;;;9170331;19;20030;-66
2022/12/19 16:10:26;;;;;;;18.00;7.00;;;9.00;88.50;;;;;;9175363;19;20035;-65
2022/12/19 16:13:32;;;;;;;15.65;7.10;;;9.00;88.50;;;;;;9173456;19;20039;-65
2022/12/19 16:16:36;;;;;;;18.25;7.35;;;9.00;88.40;;;;;;9175280;19;20371;-65
2022/12/19 16:19:40;;;;;;;;;;;9.00;88.40;;;;;;9170556;19;20019;-65
2022/12/19 16:22:46;;;;;;;14.85;7.40;;;9.00;88.30;;;;;;9166487;19;19952;-66
2022/12/19 16:25:51;;;;;;;19.83;8.25;;;9.00;88.30;;;;;;9166546;19;20157;-66
2022/12/19 16:28:54;;;;;;;18.88;7.30;;;9.00;88.30;;;;;;9169350;19;20098;-67
2022/12/19 16:31:59;;;;;;;15.48;7.43;;;9.00;88.20;;;;;;9172039;19;20026;-67
2022/12/19 16:35:03;;;;;;;13.48;7.43;;;9.10;88.30;;;;;;9162078;19;20133;-65
2022/12/19 16:38:09;;;;;;;13.80;7.57;;;9.10;88.20;;;;;;9168073;19;20019;-65
2022/12/19 16:41:18;;;;;;;14.05;7.35;;;9.10;88.20;;;;;;9171183;19;20578;-65
2022/12/19 16:44:24;;;;;;;17.67;7.32;;;9.10;88.10;;;;;;9167282;19;20026;-67
2022/12/19 16:47:28;;;;;;;13.82;6.43;;;9.10;88.10;;;;;;9173063;19;20062;-65
2022/12/19 16:50:32;;;;;;;12.48;6.90;;;9.10;88.10;;;;;;9170099;19;20030;-65
2022/12/19 16:53:38;;;;;;;14.05;6.38;;;9.10;88.00;;;;;;9177921;19;20020;-66
2022/12/19 16:56:44;;;;;;;14.63;7.28;;;9.10;88.00;;;;;;9168695;19;20027;-66
2022/12/19 16:59:48;;;;;;;16.77;7.22;;;9.10;87.90;;;;;;9172431;19;20026;-66
2022/12/19 17:02:56;;;;;;;19.42;6.57;;;9.10;87.90;;;;;;9168904;19;20035;-69
2022/12/19 17:06:00;;;;;;;12.20;6.43;;;9.10;87.90;;;;;;9172262;19;20750;-66
2022/12/19 17:09:05;;;;;;;14.60;6.63;;;9.10;87.90;;;;;;9163529;19;20100;-72
2022/12/19 17:12:17;;;;;;;17.15;7.00;;;9.20;87.80;;;;;;9165741;19;20053;-67
2022/12/19 17:15:27;;;;;;;12.63;7.00;;;9.10;87.80;;;;;;9162465;19;20033;-66
2022/12/19 17:18:34;;;;;;;14.25;6.10;;;9.10;87.70;;;;;;9164323;19;20418;-66
2022/12/19 17:21:38;;;;;;;12.93;6.53;;;9.10;87.80;;;;;;9163457;19;20025;-67
2022/12/19 17:24:46;;;;;;;12.85;6.32;;;9.20;87.80;;;;;;9161965;19;20010;-65
2022/12/19 17:27:50;;;;;;;10.55;6.50;;;9.10;87.70;;;;;;9162497;19;20109;-66
2022/12/19 17:30:56;;;;;;;11.68;5.85;;;9.20;87.70;;;;;;9170217;19;20018;-66
2022/12/19 17:34:00;;;;;;;15.02;8.23;;;9.20;87.60;;;;;;9171625;19;20044;-66
2022/12/19 17:37:06;;;;;;;12.52;6.50;;;9.20;88.20;;;;;;9173047;19;20018;-66
2022/12/19 17:40:18;;;;;;;13.75;6.75;;;9.20;87.50;;;;;;9173310;19;20319;-66
2022/12/19 17:43:22;;;;;;;10.75;6.30;;;9.20;87.50;;;;;;9171183;19;20067;-66
2022/12/19 17:46:26;;;;;;;10.43;5.88;;;9.20;87.50;;;;;;9173031;19;20483;-65
2022/12/19 17:49:30;;;;;;;;;;;9.20;87.40;;;;;;9173462;19;20087;-66
2022/12/19 17:52:36;;;;;;;13.57;5.65;;;9.20;87.40;;;;;;9170612;19;19978;-66
2022/12/19 17:55:42;;;;;;;12.00;6.40;;;9.20;87.40;;;;;;9166266;19;20035;-66
2022/12/19 17:58:46;;;;;;;11.13;5.63;;;9.20;87.30;;;;;;9168234;19;20014;-66
2022/12/19 18:01:50;;;;;;;12.50;6.80;;;9.20;87.30;;;;;;9166929;19;20809;-66
2022/12/19 18:04:54;;;;;;;10.23;5.70;;;9.20;87.30;;;;;;9171178;19;20373;-66
2022/12/19 18:07:58;;;;;;;12.55;6.28;;;9.10;87.20;;;;;;9173318;19;20027;-66
2022/12/19 18:11:06;;;;;;;;;;;9.10;87.20;;;;;;9179603;19;20052;-66
2022/12/19 18:14:10;;;;;;;13.50;5.65;;;9.20;87.30;;;;;;9175495;19;19926;-67
2022/12/19 18:17:16;;;;;;;12.52;5.93;;;9.10;87.20;;;;;;9176242;19;20014;-66
2022/12/19 18:20:25;;;;;;;13.07;5.93;;;9.20;87.30;;;;;;9176437;19;20018;-65
2022/12/19 18:23:35;;;;;;;9.25;5.40;;;9.10;87.20;;;;;;9178976;19;20090;-65
2022/12/19 18:26:40;;;;;;;11.50;5.55;;;9.20;87.20;;;;;;9178900;19;20022;-65
2022/12/19 18:29:44;;;;;;;9.50;4.70;;;9.20;87.20;;;;;;9179047;19;20421;-65
2022/12/19 18:32:51;;;;;;;12.50;5.28;;;9.20;87.20;;;;;;9176243;19;20010;-64
2022/12/19 18:35:55;;;;;;;8.93;5.07;;;9.20;87.20;;;;;;9164688;19;20045;-68
2022/12/19 18:38:59;;;;;;;14.35;4.93;;;9.20;87.30;;;;;;9169956;19;20038;-66
2022/12/19 18:42:19;;;;;;;10.65;4.90;;;9.20;87.20;;;;;;9167069;19;20022;-66
2022/12/19 18:45:26;;;;;;;8.43;5.18;;;9.20;87.20;;;;;;9178871;19;20033;-66
2022/12/19 18:48:32;;;;;;;8.35;4.82;;;9.30;87.20;;;;;;9178556;19;20397;-66
2022/12/19 18:51:36;;;;;;;11.63;4.60;;;9.30;87.20;;;;;;9174848;19;20026;-66
2022/12/19 18:54:40;;;;;;;9.48;4.57;;;9.30;87.20;;;;;;9176003;19;20006;-66
2022/12/19 18:57:46;;;;;;;10.65;5.45;;;9.30;87.10;;;;;;9174603;19;20015;-66
2022/12/19 19:00:50;;;;;;;10.48;4.57;;;9.30;87.10;;;;;;9165995;19;20056;-66
2022/12/19 19:04:02;;;;;;;7.75;4.43;;;9.40;87.20;;;;;;9170805;19;20018;-66
2022/12/19 19:07:05;;;;;;;;;;;9.40;87.10;;;;;;9173735;19;20022;-66
2022/12/19 19:10:16;;;;;;;;;;;9.50;87.20;;;;;;9172718;19;19915;-66
2022/12/19 19:13:35;;;;;;;8.65;4.28;;;9.50;87.10;;;;;;9156667;19;20336;-63
2022/12/19 19:16:39;;;;;;;8.63;4.45;;;9.50;87.00;;;;;;9166138;19;20634;-62
2022/12/19 19:19:43;;;;;;;9.07;4.53;;;9.50;87.10;;;;;;9163080;19;20740;-62
2022/12/19 19:22:47;;;;;;;8.95;4.68;;;9.50;87.00;;;;;;9165719;19;20021;-63
2022/12/19 19:25:51;;;;;;;;;;;9.50;87.00;;;;;;9174050;19;20482;-65
2022/12/19 19:28:56;;;;;;;8.10;3.97;;;9.50;87.00;;;;;;9167299;19;19931;-64
2022/12/19 19:32:03;;;;;;;10.05;3.72;;;9.60;87.00;;;;;;9164836;19;20019;-63
2022/12/19 19:35:08;;;;;;;;;;;9.60;87.00;;;;;;9171281;19;20102;-64
2022/12/19 19:38:13;;;;;;;6.78;3.65;;;9.60;86.90;;;;;;9166577;19;19918;-62
2022/12/19 19:41:17;;;;;;;8.93;4.10;;;9.70;86.90;;;;;;9167737;19;20026;-63
2022/12/19 19:44:23;;;;;;;7.68;3.63;;;9.70;86.90;;;;;;9167124;19;20022;-62
2022/12/19 19:47:27;;;;;;;6.97;3.72;;;9.70;86.90;;;;;;9165276;19;20030;-65
2022/12/19 19:50:31;;;;;;;10.05;4.60;;;9.70;86.80;;;;;;9166247;19;20010;-64
2022/12/19 19:53:35;;;;;;;;;;;9.70;86.80;;;;;;9170545;19;20019;-63
2022/12/19 19:56:39;;;;;;;9.55;3.65;;;9.70;86.80;;;;;;9171267;19;20291;-64
2022/12/19 19:59:44;;;;;;;8.50;3.60;;;9.70;86.80;;;;;;9167855;19;20458;-61
2022/12/19 20:02:49;;;;;;;10.85;3.92;;;9.80;86.70;;;;;;9165907;19;20033;-64
2022/12/19 20:05:59;;;;;;;11.32;3.97;;;9.80;86.70;;;;;;9170848;19;20018;-65
2022/12/19 20:09:03;;;;;;;7.75;3.95;;;9.80;86.70;;;;;;9166206;19;20796;-63
2022/12/19 20:12:07;;;;;;;6.05;3.58;;;9.80;86.70;;;;;;9166111;19;20026;-62
2022/12/19 20:15:13;;;;;;;;;;;9.90;86.70;;;;;;9161246;19;20035;-62
2022/12/19 20:18:16;;;;;;;8.40;4.05;;;9.90;86.70;;;;;;9163695;19;19926;-62
2022/12/19 20:21:22;;;;;;;;;;;9.90;86.60;;;;;;9162562;19;20051;-65
2022/12/19 20:24:26;;;;;;;7.75;4.05;;;9.90;86.60;;;;;;9170268;19;19926;-62
2022/12/19 20:27:30;;;;;;;;;;;9.90;86.70;;;;;;9171473;19;20018;-62
2022/12/19 20:30:37;;;;;;;5.95;3.20;;;10.00;86.70;;;;;;9170092;19;19919;-63
2022/12/19 20:33:41;;;;;;;7.70;4.30;;;9.90;86.60;;;;;;9165774;19;20019;-62
2022/12/19 20:36:44;;;;;;;7.45;4.18;;;10.00;86.60;;;;;;9170689;19;20022;-62
2022/12/19 20:39:48;;;;;;;7.03;3.88;;;10.00;86.60;;;;;;9169576;19;20042;-62
2022/12/19 20:42:52;;;;;;;9.70;4.45;;;9.90;86.50;;;;;;9169096;19;20029;-62
2022/12/19 20:46:04;;;;;;;13.38;4.60;;;10.00;86.50;;;;;;9170582;19;20025;-63
2022/12/19 20:49:08;;;;;;;9.30;4.07;;;10.00;86.30;;;;;;9169303;19;20026;-65
2022/12/19 20:52:11;;;;;;;7.20;4.65;;;10.00;86.30;;;;;;9171391;19;20042;-61
2022/12/19 20:55:16;;;;;;;5.47;3.53;;;10.00;86.30;;;;;;9166842;19;20022;-60
2022/12/19 20:58:20;;;;;;;13.73;4.22;;;10.00;86.30;;;;;;9166538;19;20022;-59